Time;durP1;ratioP1;P1;durP2;ratioP2;P2;SDS_P1;SDS_P2;PMS_P1;PMS_P2;Temp;Humidity;BMP_temperature;BMP_pressure;BME280_temperature;BME280_humidity;BME280_pressure;Samples;Min_cycle;Max_cycle;Signal;HPM_P1;HPM_P2
2022/08/11 00:01:26;;;;;;;7.68;2.05;;;24.00;75.50;;;;;;5034410;28;20078;-71
2022/08/11 00:04:01;;;;;;;4.50;1.88;;;23.90;75.10;;;;;;5041956;28;20029;-71
2022/08/11 00:06:30;;;;;;;3.30;1.83;;;23.90;75.00;;;;;;5034612;28;20079;-71
2022/08/11 00:08:57;;;;;;;4.13;2.20;;;23.90;75.20;;;;;;5041296;28;20697;-70
2022/08/11 00:11:39;;;;;;;2.42;1.90;;;23.80;75.10;;;;;;5046640;28;20044;-70
2022/08/11 00:14:29;;;;;;;4.50;2.20;;;23.80;75.20;;;;;;5042372;28;20025;-70
2022/08/11 00:17:03;;;;;;;6.00;2.25;;;23.80;75.20;;;;;;5036564;28;20025;-70
2022/08/11 00:19:32;;;;;;;4.25;1.65;;;23.80;75.20;;;;;;5038332;28;20371;-70
2022/08/11 00:21:59;;;;;;;2.78;2.00;;;23.80;75.20;;;;;;5035947;28;20476;-71
2022/08/11 00:24:35;;;;;;;4.90;2.08;;;23.80;75.20;;;;;;5038495;28;20021;-70
2022/08/11 00:27:03;;;;;;;3.20;2.30;;;23.80;75.40;;;;;;5036779;28;20021;-71
2022/08/11 00:29:28;;;;;;;3.35;2.08;;;23.80;75.50;;;;;;5048227;28;20052;-71
2022/08/11 00:31:56;;;;;;;2.67;1.83;;;23.80;75.40;;;;;;5047484;28;20487;-71
2022/08/11 00:34:26;;;;;;;4.05;2.20;;;23.80;75.50;;;;;;5038853;28;20025;-70
2022/08/11 00:36:55;;;;;;;3.53;2.00;;;23.80;75.30;;;;;;5036261;28;20017;-70
2022/08/11 00:39:22;;;;;;;3.00;2.08;;;23.80;75.40;;;;;;5042776;28;20527;-70
2022/08/11 00:41:57;;;;;;;2.95;1.92;;;23.70;75.40;;;;;;5048126;28;20391;-70
2022/08/11 00:44:46;;;;;;;4.00;2.13;;;23.70;75.20;;;;;;5043391;28;20032;-70
2022/08/11 00:47:46;;;;;;;6.75;1.88;;;23.70;75.40;;;;;;5046947;28;20025;-71
2022/08/11 00:50:29;;;;;;;5.57;2.10;;;23.70;75.20;;;;;;5043900;28;20106;-70
2022/08/11 00:53:24;;;;;;;3.30;2.03;;;23.70;74.90;;;;;;5042015;28;20423;-70
2022/08/11 00:56:18;;;;;;;2.50;1.85;;;23.70;74.70;;;;;;5012732;28;20505;-70
2022/08/11 00:59:07;;;;;;;3.38;2.13;;;23.70;74.60;;;;;;5042701;28;20029;-70
2022/08/11 01:01:36;;;;;;;4.35;2.00;;;23.80;74.30;;;;;;5048104;28;20034;-70
2022/08/11 01:04:22;;;;;;;6.35;2.10;;;23.80;74.60;;;;;;5045460;28;20024;-71
2022/08/11 01:07:12;;;;;;;3.53;1.98;;;23.80;74.10;;;;;;5045763;28;20024;-71
2022/08/11 01:09:40;;;;;;;2.70;1.90;;;23.80;73.80;;;;;;5048217;28;20092;-71
2022/08/11 01:12:48;;;;;;;3.08;1.95;;;23.80;73.70;;;;;;5045359;28;20025;-72
2022/08/11 01:15:39;;;;;;;8.25;1.92;;;23.80;73.40;;;;;;5014220;28;20037;-71
2022/08/11 01:18:34;;;;;;;3.45;1.80;;;23.80;73.30;;;;;;5037931;28;20025;-71
2022/08/11 01:21:08;;;;;;;3.53;1.75;;;23.80;73.20;;;;;;5013000;28;20459;-71
2022/08/11 01:24:02;;;;;;;3.05;2.03;;;23.70;72.90;;;;;;5040654;28;20032;-70
2022/08/11 01:26:27;;;;;;;4.10;2.15;;;23.80;72.80;;;;;;5033210;28;20507;-71
2022/08/11 01:29:14;;;;;;;6.68;2.10;;;23.80;72.80;;;;;;5034257;28;20033;-70
2022/08/11 01:32:03;;;;;;;3.65;2.10;;;23.70;72.70;;;;;;5033155;28;20032;-71
2022/08/11 01:35:07;;;;;;;1.92;1.70;;;23.80;72.80;;;;;;5036900;28;20018;-71
2022/08/11 01:38:04;;;;;;;2.78;1.70;;;23.80;72.80;;;;;;5038273;28;20491;-71
2022/08/11 01:40:46;;;;;;;2.63;1.80;;;23.70;72.70;;;;;;5045825;28;20051;-71
2022/08/11 01:46:25;;;;;;;3.00;2.17;;;23.70;72.50;;;;;;5014474;28;20451;-70
2022/08/11 01:49:03;;;;;;;6.72;1.80;;;23.70;72.70;;;;;;5040022;28;20079;-71
2022/08/11 01:51:44;;;;;;;1.60;1.38;;;23.70;72.60;;;;;;5032745;28;20024;-70
2022/08/11 01:54:29;;;;;;;3.35;1.92;;;23.70;72.70;;;;;;5037547;28;20029;-70
2022/08/11 01:57:00;;;;;;;3.42;1.70;;;23.60;72.70;;;;;;5033737;28;20009;-70
2022/08/11 01:59:48;;;;;;;5.13;1.70;;;23.60;72.70;;;;;;5036840;28;20042;-70
2022/08/11 02:02:52;;;;;;;4.22;1.77;;;23.60;72.80;;;;;;5035726;28;20026;-70
2022/08/11 02:05:48;;;;;;;4.60;1.80;;;23.50;72.70;;;;;;5036025;28;20121;-71
2022/08/11 02:08:14;;;;;;;2.85;1.98;;;23.50;72.60;;;;;;5039901;28;20021;-70
2022/08/11 02:13:51;;;;;;;1.67;1.58;;;23.50;72.50;;;;;;5039602;28;20534;-70
2022/08/11 02:16:54;;;;;;;2.47;1.80;;;23.50;72.60;;;;;;5032345;28;20017;-71
2022/08/11 02:25:21;;;;;;;2.60;1.60;;;23.40;72.80;;;;;;5051080;28;20090;-71
2022/08/11 02:28:10;;;;;;;2.55;1.80;;;23.40;72.70;;;;;;5041229;28;20423;-70
2022/08/11 02:34:05;;;;;;;2.55;1.83;;;23.40;72.30;;;;;;5040768;28;20044;-71
2022/08/11 02:36:59;;;;;;;4.00;1.83;;;23.40;72.10;;;;;;5045387;28;20068;-71
2022/08/11 02:39:38;;;;;;;6.95;1.75;;;23.40;72.00;;;;;;5034324;28;20496;-71
2022/08/11 02:42:30;;;;;;;4.47;1.80;;;23.40;72.10;;;;;;5035467;28;20352;-71
2022/08/11 02:45:01;;;;;;;1.98;1.77;;;23.40;72.10;;;;;;5030372;28;20033;-71
2022/08/11 02:51:11;;;;;;;3.50;1.73;;;23.40;71.60;;;;;;5049839;28;20429;-71
2022/08/11 02:53:45;;;;;;;1.73;1.40;;;23.40;71.30;;;;;;5040845;28;20041;-70
2022/08/11 02:56:43;;;;;;;4.68;1.88;;;23.40;71.10;;;;;;5039059;28;20025;-71
2022/08/11 03:02:26;;;;;;;2.47;1.73;;;23.40;71.00;;;;;;5045360;28;20025;-71
2022/08/11 03:05:19;;;;;;;2.40;1.88;;;23.40;71.10;;;;;;5032463;28;20029;-71
2022/08/11 03:07:57;;;;;;;1.63;1.52;;;23.40;70.90;;;;;;5036886;28;20489;-71
2022/08/11 03:10:29;;;;;;;13.18;1.70;;;23.40;70.90;;;;;;5044379;28;20107;-71
2022/08/11 03:19:09;;;;;;;;;;;23.30;70.80;;;;;;5038983;28;20051;-71
2022/08/11 03:21:59;;;;;;;4.32;1.80;;;23.30;70.80;;;;;;5032390;28;19915;-71
2022/08/11 03:24:33;;;;;;;6.47;1.95;;;23.30;70.80;;;;;;5035253;28;20099;-71
2022/08/11 03:27:09;;;;;;;4.47;1.77;;;23.30;70.70;;;;;;5034444;28;20051;-71
2022/08/11 03:29:48;;;;;;;3.13;1.70;;;23.40;70.80;;;;;;5034380;28;20032;-71
2022/08/11 03:32:34;;;;;;;1.98;1.60;;;23.30;70.70;;;;;;5036827;28;20063;-71
2022/08/11 03:35:02;;;;;;;3.53;1.58;;;23.30;70.90;;;;;;5032087;28;20087;-71
2022/08/11 03:37:50;;;;;;;4.07;1.70;;;23.30;71.70;;;;;;5035025;28;20028;-71
2022/08/11 03:43:33;;;;;;;2.85;1.83;;;23.30;70.90;;;;;;5039062;28;20470;-71
2022/08/11 03:46:28;;;;;;;2.40;1.80;;;23.20;71.00;;;;;;5015120;28;20026;-71
2022/08/11 03:49:33;;;;;;;2.15;1.42;;;23.30;71.00;;;;;;5043001;28;20040;-71
2022/08/11 03:52:17;;;;;;;1.60;1.45;;;23.30;71.00;;;;;;5048218;28;20051;-70
2022/08/11 03:55:13;;;;;;;2.50;1.92;;;23.20;71.10;;;;;;5033095;28;20029;-71
2022/08/11 03:58:07;;;;;;;3.83;1.83;;;23.20;71.10;;;;;;5040086;28;20048;-71
2022/08/11 04:00:36;;;;;;;2.42;1.73;;;23.20;71.10;;;;;;5050266;28;20045;-70
2022/08/11 04:03:23;;;;;;;5.38;2.08;;;23.20;71.80;;;;;;5042183;28;20017;-71
2022/08/11 04:06:08;;;;;;;8.00;1.70;;;23.20;71.30;;;;;;5014150;28;20512;-70
2022/08/11 04:09:02;;;;;;;3.55;1.95;;;23.20;71.30;;;;;;5042696;28;20041;-70
2022/08/11 04:12:01;;;;;;;4.47;1.60;;;23.20;71.30;;;;;;5047508;28;20455;-71
2022/08/11 04:18:03;;;;;;;3.47;1.38;;;23.20;71.50;;;;;;5046389;28;20529;-71
2022/08/11 04:21:01;;;;;;;1.73;1.63;;;23.20;71.60;;;;;;5051089;28;20037;-70
2022/08/11 04:24:11;;;;;;;3.78;2.08;;;23.20;71.70;;;;;;5042696;28;20017;-70
2022/08/11 04:27:12;;;;;;;4.47;2.67;;;23.10;71.80;;;;;;5016388;28;20025;-70
2022/08/11 04:30:16;;;;;;;4.20;1.90;;;23.10;71.80;;;;;;5039016;28;20037;-70
2022/08/11 04:33:03;;;;;;;3.15;1.90;;;23.10;71.70;;;;;;5034959;28;20416;-70
2022/08/11 04:35:42;;;;;;;5.25;2.05;;;23.10;71.80;;;;;;5048790;28;20100;-70
2022/08/11 04:38:14;;;;;;;3.42;1.92;;;23.20;72.00;;;;;;5041548;28;20047;-70
2022/08/11 04:40:51;;;;;;;8.27;2.03;;;23.20;72.00;;;;;;5033601;28;20030;-71
2022/08/11 04:43:48;;;;;;;5.38;1.80;;;23.20;72.00;;;;;;5042207;28;20090;-71
2022/08/11 04:46:31;;;;;;;4.38;1.60;;;23.30;71.90;;;;;;5017122;28;20661;-71
2022/08/11 05:01:50;;;;;;;6.43;1.58;;;23.50;72.00;;;;;;5047956;28;20064;-72
2022/08/11 05:07:48;;;;;;;2.97;1.63;;;23.50;71.70;;;;;;5037719;28;20033;-71
2022/08/11 05:10:38;;;;;;;4.68;1.95;;;23.60;72.00;;;;;;5035635;28;20025;-70
2022/08/11 05:36:38;;;;;;;4.00;1.98;;;24.00;71.40;;;;;;5020007;28;21243;-71
2022/08/11 05:58:48;;;;;;;8.40;2.00;;;24.40;70.30;;;;;;5038487;28;20506;-72
2022/08/11 06:01:21;;;;;;;6.40;2.15;;;24.40;70.10;;;;;;5048892;28;20041;-70
2022/08/11 06:06:39;;;;;;;3.67;1.70;;;24.40;70.40;;;;;;5047088;28;20116;-72
2022/08/11 06:09:06;;;;;;;3.15;2.10;;;24.50;70.10;;;;;;5037694;28;20047;-72
2022/08/11 06:11:38;;;;;;;5.05;2.10;;;24.50;70.10;;;;;;5032898;28;20537;-72
2022/08/11 06:14:06;;;;;;;2.00;1.85;;;24.60;70.00;;;;;;5041121;28;20017;-72
2022/08/11 06:16:32;;;;;;;4.28;2.08;;;24.60;70.00;;;;;;5045658;28;20040;-72
2022/08/11 06:18:59;;;;;;;6.20;2.05;;;24.70;70.20;;;;;;5038916;28;20460;-71
2022/08/11 06:21:26;;;;;;;2.63;1.77;;;24.70;70.10;;;;;;5032100;28;20032;-73
2022/08/11 06:23:53;;;;;;;4.57;1.77;;;24.80;70.10;;;;;;5039631;28;20353;-72
2022/08/11 06:26:19;;;;;;;3.85;1.90;;;24.90;70.20;;;;;;5031082;28;20041;-72
2022/08/11 06:28:46;;;;;;;3.10;1.92;;;24.90;70.70;;;;;;5039621;28;20021;-77
2022/08/11 06:31:18;;;;;;;5.70;1.98;;;24.90;69.70;;;;;;5031940;28;20028;-73
2022/08/11 06:34:00;;;;;;;3.03;2.15;;;25.00;69.60;;;;;;5039517;28;20468;-81
2022/08/11 06:36:40;;;;;;;6.18;2.00;;;25.00;69.40;;;;;;5032663;28;20477;-86
2022/08/11 06:39:42;;;;;;;4.55;2.08;;;25.10;69.10;;;;;;5042581;28;20247;-76
2022/08/11 06:42:13;;;;;;;4.85;1.90;;;25.10;69.10;;;;;;5040176;28;20488;-76
2022/08/11 06:44:40;;;;;;;3.38;2.05;;;25.10;69.10;;;;;;5033076;28;20041;-76
2022/08/11 06:47:11;;;;;;;2.95;2.00;;;25.20;69.20;;;;;;5035556;28;20013;-75
2022/08/11 06:52:35;;;;;;;4.80;1.92;;;25.30;69.30;;;;;;5036325;28;20032;-76
2022/08/11 07:01:10;;;;;;;3.13;2.30;;;25.50;68.40;;;;;;5012995;28;20077;-74
2022/08/11 07:03:46;;;;;;;6.00;2.25;;;25.50;68.50;;;;;;5038802;28;20717;-75
2022/08/11 07:06:32;;;;;;;5.88;2.42;;;25.50;68.60;;;;;;5014871;28;20442;-75
2022/08/11 07:29:56;;;;;;;2.53;1.98;;;26.00;67.20;;;;;;5033689;28;20041;-76
2022/08/11 07:32:29;;;;;;;5.95;2.05;;;26.00;67.40;;;;;;5040661;28;20021;-75
2022/08/11 07:35:12;;;;;;;;;;;26.10;67.30;;;;;;5036643;28;20076;-75
2022/08/11 07:37:42;;;;;;;4.95;2.15;;;26.10;67.00;;;;;;5040442;28;19909;-76
2022/08/11 07:40:08;;;;;;;2.35;1.70;;;26.10;67.00;;;;;;5037232;28;20404;-75
2022/08/11 07:42:36;;;;;;;4.25;2.00;;;26.10;66.50;;;;;;5040349;28;20032;-75
2022/08/11 07:53:26;;;;;;;6.25;1.83;;;26.30;65.20;;;;;;5046292;28;20566;-75
2022/08/11 07:55:56;;;;;;;2.83;1.98;;;26.40;64.60;;;;;;5033433;28;20025;-74
2022/08/11 08:17:56;;;;;;;4.88;2.10;;;26.90;64.30;;;;;;5039810;28;20423;-74
2022/08/11 08:20:29;;;;;;;2.03;1.70;;;27.00;63.50;;;;;;5035314;28;20064;-74
2022/08/11 08:23:01;;;;;;;4.63;2.25;;;27.10;63.70;;;;;;5043126;28;20029;-75
2022/08/11 08:25:32;;;;;;;3.20;1.77;;;27.10;62.60;;;;;;5048248;28;20379;-75
2022/08/11 08:28:00;;;;;;;6.00;2.10;;;27.10;62.70;;;;;;5042152;28;20053;-75
2022/08/11 08:33:15;;;;;;;6.57;1.88;;;27.30;62.60;;;;;;5041632;28;20091;-76
2022/08/11 08:35:43;;;;;;;4.30;1.80;;;27.30;62.70;;;;;;5033821;28;20125;-75
2022/08/11 08:38:09;;;;;;;4.80;1.95;;;27.40;62.30;;;;;;5040525;28;20029;-76
2022/08/11 08:40:36;;;;;;;3.85;1.48;;;27.40;61.30;;;;;;5034599;28;20029;-76
2022/08/11 08:43:09;;;;;;;4.97;1.75;;;27.50;61.30;;;;;;5041901;28;20538;-74
2022/08/11 08:45:36;;;;;;;9.43;1.90;;;27.50;61.20;;;;;;5051594;28;20460;-75
2022/08/11 08:48:04;;;;;;;2.30;1.70;;;27.50;60.70;;;;;;5043747;28;20024;-76
2022/08/11 08:53:30;;;;;;;1.73;1.60;;;27.70;60.90;;;;;;5041423;28;20047;-74
2022/08/11 08:55:58;;;;;;;3.00;1.42;;;27.70;60.00;;;;;;5012634;28;20036;-74
2022/08/11 08:58:25;;;;;;;3.63;1.75;;;27.80;59.60;;;;;;5041395;28;20036;-74
2022/08/11 09:00:54;;;;;;;4.30;2.00;;;27.80;59.80;;;;;;5032045;28;20029;-75
2022/08/11 09:03:23;;;;;;;5.53;1.75;;;27.80;59.80;;;;;;5042619;28;20033;-75
2022/08/11 09:05:53;;;;;;;2.45;1.60;;;27.90;59.80;;;;;;5012911;28;20076;-75
2022/08/11 09:08:20;;;;;;;2.38;1.85;;;28.00;59.40;;;;;;5044014;28;20070;-74
2022/08/11 09:11:48;;;;;;;2.28;1.70;;;28.00;59.20;;;;;;5013057;28;20385;-76
2022/08/11 09:13:35;;;;;;;1.90;1.65;;;28.10;59.50;;;;;;5041932;28;20033;-73
2022/08/11 09:16:05;;;;;;;3.08;1.60;;;28.10;58.80;;;;;;5051169;28;20021;-74
2022/08/11 09:18:31;;;;;;;7.13;1.70;;;28.20;58.50;;;;;;5039880;28;20033;-75
2022/08/11 09:20:57;;;;;;;2.55;1.60;;;28.30;58.20;;;;;;5032222;28;20415;-75
2022/08/11 09:28:54;;;;;;;1.67;1.40;;;28.50;58.40;;;;;;5043930;28;20040;-76
2022/08/11 09:31:21;;;;;;;2.90;1.67;;;28.60;59.00;;;;;;5047570;28;20079;-75
2022/08/11 09:33:50;;;;;;;3.97;1.80;;;28.70;57.40;;;;;;5039605;28;20018;-76
2022/08/11 09:41:49;;;;;;;2.33;1.27;;;29.10;56.10;;;;;;5034759;28;20036;-75
2022/08/11 09:46:59;;;;;;;1.70;1.60;;;29.40;55.40;;;;;;5035614;28;20120;-75
2022/08/11 09:49:26;;;;;;;5.40;1.50;;;29.40;55.20;;;;;;5035837;28;20025;-76
2022/08/11 09:51:53;;;;;;;6.28;1.60;;;29.60;55.60;;;;;;5034850;28;20018;-75
2022/08/11 09:54:22;;;;;;;4.20;1.50;;;29.60;55.20;;;;;;5036786;28;20029;-75
2022/08/11 09:59:35;;;;;;;6.15;1.65;;;29.80;54.10;;;;;;5046578;28;20035;-75
2022/08/11 10:02:03;;;;;;;2.28;1.38;;;29.90;54.00;;;;;;5045792;28;20024;-74
2022/08/11 10:04:38;;;;;;;2.50;1.20;;;30.00;53.90;;;;;;5035111;28;20026;-75
2022/08/11 10:07:08;;;;;;;2.75;1.52;;;30.10;53.70;;;;;;5035016;28;20033;-74
2022/08/11 10:09:44;;;;;;;3.63;1.40;;;30.20;53.10;;;;;;5035275;28;20024;-75
2022/08/11 10:12:16;;;;;;;2.65;1.40;;;30.20;53.10;;;;;;5035571;28;20021;-75
2022/08/11 10:17:36;;;;;;;8.85;1.40;;;30.30;53.30;;;;;;5037666;28;20098;-74
2022/08/11 10:20:06;;;;;;;3.17;1.40;;;30.30;53.00;;;;;;5048462;28;20036;-75
2022/08/11 10:28:08;;;;;;;4.88;1.27;;;30.40;52.40;;;;;;5039984;28;20079;-75
2022/08/11 10:36:06;;;;;;;1.55;1.35;;;30.60;52.10;;;;;;5014203;28;20040;-77
2022/08/11 10:38:33;;;;;;;3.38;0.98;;;30.80;52.10;;;;;;5038251;28;20049;-75
2022/08/11 10:43:46;;;;;;;1.98;1.17;;;30.90;50.90;;;;;;5036964;28;20029;-75
2022/08/11 10:48:57;;;;;;;1.38;1.27;;;31.00;51.80;;;;;;5040863;28;20422;-77
2022/08/11 10:59:46;;;;;;;1.58;1.13;;;31.10;52.00;;;;;;5051634;28;20509;-76
2022/08/11 11:02:14;;;;;;;2.47;1.90;;;31.10;51.80;;;;;;5050774;28;20029;-76
2022/08/11 11:05:15;;;;;;;6.00;1.50;;;31.10;53.30;;;;;;5051709;28;20100;-75
2022/08/11 11:08:51;;;;;;;2.25;1.30;;;31.20;51.50;;;;;;5047290;28;20052;-75
2022/08/11 11:10:57;;;;;;;1.55;1.15;;;31.20;51.20;;;;;;5018336;28;20092;-76
2022/08/11 11:18:56;;;;;;;3.67;1.30;;;31.00;50.60;;;;;;5048831;28;20047;-76
2022/08/11 11:21:23;;;;;;;3.05;1.58;;;31.10;50.90;;;;;;5053713;28;20060;-76
2022/08/11 11:24:36;;;;;;;2.85;1.58;;;31.30;51.80;;;;;;5049229;28;20108;-76
2022/08/11 11:27:36;;;;;;;2.78;1.80;;;31.50;51.20;;;;;;5041536;28;20013;-74
2022/08/11 11:30:06;;;;;;;4.63;1.55;;;31.70;51.40;;;;;;5034558;28;20116;-75
2022/08/11 11:32:34;;;;;;;6.35;1.70;;;31.70;51.50;;;;;;5039987;28;20545;-74
2022/08/11 11:35:30;;;;;;;2.58;1.48;;;31.70;51.50;;;;;;5046232;28;20372;-78
2022/08/11 11:37:56;;;;;;;4.20;1.48;;;31.80;52.00;;;;;;5040907;28;20375;-78
2022/08/11 11:40:23;;;;;;;2.17;1.58;;;32.10;51.20;;;;;;5036724;28;20454;-80
2022/08/11 11:42:51;;;;;;;8.13;4.18;;;32.30;50.90;;;;;;5040037;28;20153;-78
2022/08/11 11:45:24;;;;;;;3.22;2.35;;;32.50;51.50;;;;;;5050480;28;20037;-79
2022/08/11 11:47:53;;;;;;;4.70;1.90;;;32.50;51.40;;;;;;5043099;28;20064;-78
2022/08/11 11:50:23;;;;;;;4.13;1.80;;;32.50;51.90;;;;;;5035541;28;20026;-79
2022/08/11 11:52:52;;;;;;;4.72;1.67;;;32.50;51.60;;;;;;5039838;28;20026;-80
2022/08/11 11:55:20;;;;;;;3.95;1.23;;;32.50;52.00;;;;;;5035018;28;20119;-77
2022/08/11 12:03:16;;;;;;;3.15;1.33;;;32.70;50.90;;;;;;5042416;28;20052;-78
2022/08/11 12:05:43;;;;;;;3.88;1.65;;;32.80;51.30;;;;;;5030934;28;20036;-75
2022/08/11 12:08:18;;;;;;;2.45;1.60;;;32.90;50.70;;;;;;5037728;28;20025;-81
2022/08/11 12:13:39;;;;;;;2.50;1.30;;;33.00;50.50;;;;;;5030398;28;20396;-80
2022/08/11 12:13:41;;;;;;;4.53;1.40;;;33.60;50.50;;;;;;5038824;28;20489;-77
2022/08/11 12:16:13;;;;;;;1.73;1.20;;;35.40;48.30;;;;;;5029741;28;20068;-79
2022/08/11 12:18:41;;;;;;;3.38;1.30;;;37.80;46.10;;;;;;5037283;28;20028;-78
2022/08/11 12:21:08;;;;;;;1.17;1.00;;;40.00;44.30;;;;;;5029151;28;20130;-76
2022/08/11 12:29:09;;;;;;;5.15;1.50;;;45.40;41.00;;;;;;5039780;28;20090;-77
2022/08/11 12:31:38;;;;;;;3.30;1.20;;;46.50;39.70;;;;;;5030637;28;20029;-76
2022/08/11 12:34:05;;;;;;;1.70;1.17;;;47.60;39.10;;;;;;5040259;28;20025;-76
2022/08/11 12:36:35;;;;;;;3.15;1.58;;;48.40;37.80;;;;;;5043992;28;20033;-78
2022/08/11 12:39:07;;;;;;;2.65;1.55;;;49.10;37.30;;;;;;5041781;28;20080;-77
2022/08/11 12:47:07;;;;;;;2.40;1.58;;;51.70;36.10;;;;;;5030427;28;20082;-78
2022/08/11 12:52:28;;;;;;;1.73;1.63;;;52.00;35.30;;;;;;5033793;28;20435;-79
2022/08/11 12:55:02;;;;;;;2.13;1.80;;;51.30;35.20;;;;;;5035172;28;20037;-82
2022/08/11 13:06:04;;;;;;;4.40;1.42;;;51.00;35.90;;;;;;5011749;28;20052;-83
2022/08/11 13:08:34;;;;;;;4.68;1.50;;;52.30;34.90;;;;;;5038533;28;20449;-84
2022/08/11 13:13:47;;;;;;;9.43;2.00;;;53.80;34.00;;;;;;5037238;28;20055;-78
2022/08/11 13:16:14;;;;;;;2.28;1.90;;;54.20;33.90;;;;;;5046799;28;20304;-77
2022/08/11 13:18:41;;;;;;;2.28;2.17;;;54.70;33.20;;;;;;5039515;28;20037;-83
2022/08/11 13:21:10;;;;;;;2.20;2.00;;;54.70;33.10;;;;;;5047715;28;20041;-84
2022/08/11 13:23:38;;;;;;;5.50;2.17;;;54.70;32.70;;;;;;5038071;28;20021;-82
2022/08/11 13:26:07;;;;;;;1.90;1.80;;;54.70;33.00;;;;;;5028160;28;20036;-77
2022/08/11 13:28:38;;;;;;;2.60;2.30;;;54.80;33.10;;;;;;5036770;28;20103;-81
2022/08/11 13:31:10;;;;;;;4.40;2.70;;;55.60;32.70;;;;;;5029564;28;20029;-87
2022/08/11 13:33:46;;;;;;;2.97;2.70;;;56.40;32.50;;;;;;5036910;28;20073;-82
2022/08/11 13:36:14;;;;;;;7.10;2.55;;;56.50;31.90;;;;;;5029470;28;20587;-80
2022/08/11 13:38:43;;;;;;;3.08;2.70;;;56.40;31.90;;;;;;5037564;28;20462;-81
2022/08/11 13:43:55;;;;;;;2.45;2.25;;;56.40;31.50;;;;;;5040031;28;20399;-80
2022/08/11 13:46:23;;;;;;;3.78;2.10;;;56.00;31.70;;;;;;5045443;28;20033;-78
2022/08/11 13:48:51;;;;;;;5.43;2.60;;;55.70;32.00;;;;;;5036139;28;20030;-78
2022/08/11 13:51:31;;;;;;;2.45;2.35;;;55.90;31.50;;;;;;5029165;28;20021;-80
2022/08/11 13:54:08;;;;;;;3.10;2.30;;;56.00;31.60;;;;;;5037759;28;20025;-80
2022/08/11 13:56:37;;;;;;;3.15;2.30;;;56.10;31.20;;;;;;5043974;28;20042;-81
2022/08/11 13:59:03;;;;;;;2.50;2.30;;;55.80;31.40;;;;;;5035320;28;20021;-79
2022/08/11 14:01:33;;;;;;;6.40;2.47;;;55.40;31.40;;;;;;5029181;28;20480;-78
2022/08/11 14:04:07;;;;;;;2.90;2.40;;;55.10;31.40;;;;;;5035399;28;20113;-79
2022/08/11 14:06:35;;;;;;;2.22;2.00;;;54.40;31.60;;;;;;5030003;28;21340;-80
2022/08/11 14:09:02;;;;;;;2.03;1.73;;;53.50;31.90;;;;;;5039995;28;20025;-80
2022/08/11 14:14:21;;;;;;;3.28;1.63;;;51.90;32.70;;;;;;5033865;28;20040;-80
2022/08/11 14:16:49;;;;;;;1.85;1.52;;;51.30;33.00;;;;;;5029549;28;20033;-80
2022/08/11 14:19:19;;;;;;;2.20;1.60;;;50.90;33.70;;;;;;5033695;28;20028;-79
2022/08/11 14:22:28;;;;;;;;;;;50.50;33.40;;;;;;5030460;28;20047;-78
2022/08/11 14:24:41;;;;;;;4.32;1.40;;;50.10;33.80;;;;;;5038651;28;19936;-81
2022/08/11 14:27:12;;;;;;;3.55;1.40;;;49.30;33.80;;;;;;5033166;28;20040;-81
2022/08/11 14:29:40;;;;;;;2.85;1.27;;;48.70;34.20;;;;;;5030704;28;20017;-80
2022/08/11 14:32:09;;;;;;;1.80;1.20;;;48.40;34.60;;;;;;5033139;28;20483;-79
2022/08/11 14:34:38;;;;;;;2.83;1.45;;;48.10;34.80;;;;;;5031643;28;20109;-80
2022/08/11 14:37:12;;;;;;;1.60;1.35;;;48.00;35.10;;;;;;5032164;28;20082;-80
2022/08/11 14:39:44;;;;;;;2.53;1.27;;;48.10;35.00;;;;;;5030995;28;20135;-81
2022/08/11 14:47:53;;;;;;;1.80;1.40;;;48.50;35.10;;;;;;5035125;28;20091;-80
2022/08/11 14:50:22;;;;;;;3.28;1.20;;;48.10;34.90;;;;;;5030681;28;20392;-80
2022/08/11 14:52:50;;;;;;;2.42;1.40;;;47.40;35.20;;;;;;5032921;28;20025;-81
2022/08/11 14:58:03;;;;;;;1.63;1.20;;;46.50;35.80;;;;;;5034419;28;20045;-79
2022/08/11 15:00:31;;;;;;;1.83;1.45;;;46.00;35.90;;;;;;5030069;28;20495;-81
2022/08/11 15:03:09;;;;;;;2.78;1.20;;;45.90;36.00;;;;;;5036956;28;20027;-80
2022/08/11 15:05:56;;;;;;;3.00;1.45;;;45.90;36.00;;;;;;5047692;28;20040;-83
2022/08/11 15:09:05;;;;;;;5.97;1.30;;;46.20;35.90;;;;;;5036868;28;20044;-81
2022/08/11 15:14:01;;;;;;;2.30;1.20;;;45.90;36.40;;;;;;5041213;28;20399;-80
2022/08/11 15:19:13;;;;;;;1.90;1.40;;;45.10;37.40;;;;;;5037138;28;20037;-79
2022/08/11 15:24:23;;;;;;;1.65;1.50;;;44.30;38.00;;;;;;5036913;28;20044;-79
2022/08/11 15:38:01;;;;;;;3.65;1.50;;;43.50;38.80;;;;;;5037528;28;20028;-79
2022/08/11 15:46:16;;;;;;;4.38;1.60;;;43.70;38.90;;;;;;5025997;28;19913;-79
2022/08/11 15:48:51;;;;;;;9.15;1.50;;;43.90;38.50;;;;;;5042360;28;20032;-80
2022/08/11 15:51:21;;;;;;;2.13;1.50;;;44.20;38.10;;;;;;5034998;28;20435;-80
2022/08/11 15:53:53;;;;;;;1.87;1.43;;;44.10;37.90;;;;;;5042146;28;20052;-81
2022/08/11 15:56:23;;;;;;;1.73;1.20;;;44.10;37.80;;;;;;5035229;28;20260;-80
2022/08/11 16:04:25;;;;;;;2.38;1.38;;;44.40;37.90;;;;;;5039835;28;20484;-82
2022/08/11 16:07:04;;;;;;;3.13;1.40;;;44.80;37.90;;;;;;5037095;28;20028;-79
2022/08/11 16:10:00;;;;;;;3.10;1.77;;;45.20;37.50;;;;;;5047320;28;20017;-83
2022/08/11 16:12:30;;;;;;;3.00;1.30;;;45.40;37.20;;;;;;5046668;28;20025;-79
2022/08/11 16:18:00;;;;;;;2.25;1.40;;;45.30;37.50;;;;;;5039912;28;20121;-79
2022/08/11 16:20:28;;;;;;;2.70;1.40;;;45.40;37.30;;;;;;5048025;28;20075;-79
2022/08/11 16:22:59;;;;;;;2.95;1.30;;;45.10;37.40;;;;;;5042620;28;20022;-80
2022/08/11 16:25:26;;;;;;;1.30;1.10;;;45.20;37.30;;;;;;5047567;28;20119;-80
2022/08/11 16:28:05;;;;;;;4.20;1.50;;;45.10;37.20;;;;;;5042990;28;20094;-80
2022/08/11 16:30:33;;;;;;;3.80;1.30;;;45.10;37.40;;;;;;5047821;28;20528;-79
2022/08/11 16:33:03;;;;;;;14.80;1.42;;;45.20;36.90;;;;;;5044511;28;20079;-82
2022/08/11 16:38:34;;;;;;;5.15;1.30;;;44.80;36.20;;;;;;5042352;28;20052;-79
2022/08/11 16:46:57;;;;;;;1.92;1.30;;;43.90;36.50;;;;;;5014961;28;20072;-81
2022/08/11 16:47:00;;;;;;;2.13;1.50;;;41.90;38.00;;;;;;5048643;28;20029;-79
2022/08/11 16:49:31;;;;;;;1.40;1.30;;;40.90;38.60;;;;;;5045404;28;20498;-76
2022/08/11 16:52:02;;;;;;;2.35;1.35;;;39.90;39.10;;;;;;5561070;22;20060;-75
2022/08/11 16:54:34;;;;;;;2.05;1.50;;;39.20;39.80;;;;;;5032173;28;20064;-77
2022/08/11 16:59:52;;;;;;;2.42;1.35;;;38.00;40.70;;;;;;5032379;28;20041;-76
2022/08/11 17:14:09;;;;;;;1.83;1.52;;;35.90;43.10;;;;;;5032319;28;20037;-85
2022/08/11 17:16:39;;;;;;;4.68;1.50;;;35.90;43.40;;;;;;5014122;28;20113;-84
2022/08/11 17:19:15;;;;;;;3.00;1.48;;;36.20;43.40;;;;;;5032439;28;20490;-82
2022/08/11 17:24:44;;;;;;;2.15;1.60;;;36.00;43.60;;;;;;5032697;28;20111;-86
2022/08/11 17:27:15;;;;;;;2.05;1.50;;;35.70;44.50;;;;;;5031974;28;20542;-84
2022/08/11 17:29:54;;;;;;;5.43;1.83;;;35.30;44.90;;;;;;5032617;28;20116;-83
2022/08/11 17:35:30;;;;;;;1.95;1.50;;;34.50;45.70;;;;;;5032687;28;20574;-84
2022/08/11 17:38:13;;;;;;;4.18;1.70;;;34.10;46.00;;;;;;5028829;28;20030;-85
2022/08/11 17:49:06;;;;;;;3.33;1.83;;;32.90;47.70;;;;;;5011773;28;20040;-83
2022/08/11 17:59:58;;;;;;;5.43;1.90;;;32.00;49.20;;;;;;5019937;28;20400;-78
2022/08/11 18:05:42;;;;;;;5.30;1.83;;;31.60;49.50;;;;;;5006688;28;20650;-80
